KLM1848 NZWN-YMLT
Flight info
| Callsign | KLM1848 |
|---|---|
| Flight time | N/A |
| Altitude | 32000 |
| Route | UPLUD1P SABDA V306 ONOLA DCT KABIN M643 FONLO/N0440F340 M643 TASUM H111 LATUM DCT |
| Aircraft | B738/M-L/S |
Departure
| Time | 2026-05-05 07:07 |
|---|---|
| Airport | Wellington International Airport (NZWN) |
Arrival
| Time | N/A |
|---|---|
| Airport | Launceston Airport (YMLT) |
| Time | Latitude | Longitude | Altitude | Speed | Heading |
|---|---|---|---|---|---|
| 2026-05-05 06:55 | -41.32959 | 174.81021 | 30 ft | 0 kts | 153° |
| 2026-05-05 07:00 | -41.32956 | 174.81020 | 30 ft | 1 kts | 143° |
| 2026-05-05 07:00 | -41.32948 | 174.81000 | 29 ft | 2 kts | 117° |
| 2026-05-05 07:00 | -41.32943 | 174.80988 | 29 ft | 2 kts | 123° |
| 2026-05-05 07:00 | -41.32935 | 174.80971 | 29 ft | 2 kts | 118° |
| 2026-05-05 07:01 | -41.32928 | 174.80954 | 28 ft | 2 kts | 120° |
| 2026-05-05 07:01 | -41.32918 | 174.80930 | 28 ft | 2 kts | 119° |
| 2026-05-05 07:01 | -41.32911 | 174.80913 | 27 ft | 2 kts | 119° |
| 2026-05-05 07:01 | -41.32904 | 174.80896 | 27 ft | 2 kts | 119° |
| 2026-05-05 07:02 | -41.32898 | 174.80882 | 27 ft | 1 kts | 145° |
| 2026-05-05 07:02 | -41.32892 | 174.80881 | 27 ft | 1 kts | 192° |
| 2026-05-05 07:02 | -41.32886 | 174.80881 | 27 ft | 0 kts | 183° |
| 2026-05-05 07:04 | -41.32896 | 174.80881 | 27 ft | 3 kts | 183° |
| 2026-05-05 07:04 | -41.32903 | 174.80881 | 27 ft | 0 kts | 183° |
| 2026-05-05 07:04 | -41.32908 | 174.80879 | 27 ft | 2 kts | 183° |
| 2026-05-05 07:04 | -41.32912 | 174.80879 | 27 ft | 0 kts | 183° |
| 2026-05-05 07:05 | -41.32969 | 174.80876 | 27 ft | 12 kts | 182° |
| 2026-05-05 07:05 | -41.33043 | 174.80872 | 27 ft | 18 kts | 182° |
| 2026-05-05 07:05 | -41.33222 | 174.80844 | 27 ft | 12 kts | 229° |
| 2026-05-05 07:05 | -41.33293 | 174.80778 | 27 ft | 14 kts | 185° |
| 2026-05-05 07:06 | -41.33400 | 174.80771 | 27 ft | 16 kts | 182° |
| 2026-05-05 07:06 | -41.33515 | 174.80759 | 26 ft | 14 kts | 193° |
| 2026-05-05 07:06 | -41.33564 | 174.80714 | 24 ft | 13 kts | 237° |
| 2026-05-05 07:06 | -41.33498 | 174.80638 | 22 ft | 11 kts | 2° |
| 2026-05-05 07:07 | -41.33302 | 174.80652 | 22 ft | 71 kts | 3° |
| 2026-05-05 07:07 | -41.32470 | 174.80713 | 53 ft | 162 kts | 3° |
| 2026-05-05 07:07 | -41.31279 | 174.80797 | 849 ft | 187 kts | 0° |
| 2026-05-05 07:07 | -41.29908 | 174.80692 | 1782 ft | 210 kts | 352° |
| 2026-05-05 07:08 | -41.28934 | 174.80516 | 2337 ft | 221 kts | 351° |
| 2026-05-05 07:08 | -41.26890 | 174.79706 | 3560 ft | 240 kts | 344° |
| 2026-05-05 07:08 | -41.25806 | 174.79346 | 4180 ft | 251 kts | 348° |
| 2026-05-05 07:08 | -41.23486 | 174.78766 | 5540 ft | 266 kts | 349° |
| 2026-05-05 07:09 | -41.21652 | 174.78337 | 6668 ft | 272 kts | 350° |
| 2026-05-05 07:09 | -41.19810 | 174.77882 | 7769 ft | 278 kts | 345° |
| 2026-05-05 07:09 | -41.18115 | 174.76730 | 8814 ft | 283 kts | 317° |
| 2026-05-05 07:09 | -41.17075 | 174.74556 | 9897 ft | 286 kts | 285° |
| 2026-05-05 07:10 | -41.16914 | 174.72801 | 10474 ft | 294 kts | 266° |
| 2026-05-05 07:10 | -41.17945 | 174.69357 | 11303 ft | 319 kts | 227° |
| 2026-05-05 07:10 | -41.19756 | 174.67717 | 12237 ft | 325 kts | 199° |
| 2026-05-05 07:10 | -41.21961 | 174.67381 | 13120 ft | 331 kts | 172° |
| 2026-05-05 07:11 | -41.24111 | 174.68405 | 14051 ft | 335 kts | 148° |
| 2026-05-05 07:11 | -41.26046 | 174.70122 | 14947 ft | 340 kts | 149° |
| 2026-05-05 07:11 | -41.28272 | 174.71222 | 15771 ft | 346 kts | 172° |
| 2026-05-05 07:11 | -41.30665 | 174.71278 | 16717 ft | 348 kts | 181° |
| 2026-05-05 07:12 | -41.33096 | 174.71332 | 17469 ft | 355 kts | 177° |
| 2026-05-05 07:12 | -41.35541 | 174.71307 | 18272 ft | 358 kts | 185° |
| 2026-05-05 07:12 | -41.38021 | 174.70865 | 19063 ft | 362 kts | 188° |
| 2026-05-05 07:12 | -41.40495 | 174.70358 | 19801 ft | 367 kts | 188° |
| 2026-05-05 07:13 | -41.43033 | 174.69827 | 20530 ft | 371 kts | 189° |
| 2026-05-05 07:13 | -41.45569 | 174.69270 | 21226 ft | 375 kts | 189° |
| 2026-05-05 07:13 | -41.48131 | 174.68596 | 21900 ft | 379 kts | 194° |
| 2026-05-05 07:13 | -41.50622 | 174.67445 | 22540 ft | 383 kts | 204° |
| 2026-05-05 07:14 | -41.52969 | 174.65860 | 23185 ft | 386 kts | 207° |
| 2026-05-05 07:14 | -41.55350 | 174.64200 | 23788 ft | 390 kts | 207° |
| 2026-05-05 07:14 | -41.57784 | 174.62547 | 24377 ft | 394 kts | 206° |
| 2026-05-05 07:14 | -41.59397 | 174.61449 | 24757 ft | 396 kts | 207° |
| 2026-05-05 07:15 | -41.62649 | 174.59209 | 25559 ft | 399 kts | 207° |
| 2026-05-05 07:15 | -41.65108 | 174.57501 | 26360 ft | 395 kts | 207° |
| 2026-05-05 07:15 | -41.67505 | 174.55835 | 27036 ft | 393 kts | 207° |
| 2026-05-05 07:15 | -41.69915 | 174.54158 | 27708 ft | 392 kts | 207° |
| 2026-05-05 07:16 | -41.72333 | 174.52470 | 28358 ft | 391 kts | 207° |
| 2026-05-05 07:16 | -41.74712 | 174.50807 | 28977 ft | 390 kts | 207° |
| 2026-05-05 07:16 | -41.77099 | 174.49136 | 29579 ft | 389 kts | 207° |
| 2026-05-05 07:16 | -41.79471 | 174.47473 | 30161 ft | 388 kts | 207° |
| 2026-05-05 07:17 | -41.81059 | 174.46321 | 30544 ft | 387 kts | 208° |
| 2026-05-05 07:17 | -41.84164 | 174.43955 | 31286 ft | 386 kts | 209° |
| 2026-05-05 07:17 | -41.86480 | 174.42186 | 31819 ft | 385 kts | 209° |
| 2026-05-05 07:17 | -41.88030 | 174.41013 | 31984 ft | 386 kts | 209° |
| 2026-05-05 07:18 | -41.90388 | 174.39229 | 31998 ft | 392 kts | 209° |
| 2026-05-05 07:18 | -41.95831 | 174.35098 | 32000 ft | 384 kts | 209° |
| 2026-05-05 07:19 | -42.00488 | 174.31561 | 32000 ft | 383 kts | 210° |
| 2026-05-05 07:19 | -42.05096 | 174.28043 | 31999 ft | 384 kts | 211° |
| 2026-05-05 07:20 | -42.09122 | 174.23383 | 32000 ft | 384 kts | 233° |
| 2026-05-05 07:20 | -42.10508 | 174.20354 | 32000 ft | 384 kts | 244° |
| 2026-05-05 07:20 | -42.11461 | 174.16991 | 32001 ft | 384 kts | 255° |
| 2026-05-05 07:21 | -42.12864 | 174.10074 | 32000 ft | 384 kts | 253° |
| 2026-05-05 07:21 | -42.14139 | 174.04359 | 31999 ft | 384 kts | 253° |
| 2026-05-05 07:22 | -42.15861 | 173.96277 | 32000 ft | 384 kts | 254° |
| 2026-05-05 07:22 | -42.17322 | 173.89369 | 31999 ft | 384 kts | 254° |
| 2026-05-05 07:23 | -42.18767 | 173.82480 | 32000 ft | 384 kts | 254° |
| 2026-05-05 07:23 | -42.19975 | 173.76697 | 32000 ft | 384 kts | 254° |
| 2026-05-05 07:24 | -42.21416 | 173.69768 | 32000 ft | 384 kts | 254° |
| 2026-05-05 07:24 | -42.23083 | 173.61722 | 32000 ft | 384 kts | 254° |
| 2026-05-05 07:25 | -42.24280 | 173.55920 | 31999 ft | 384 kts | 254° |
| 2026-05-05 07:25 | -42.25937 | 173.47864 | 32000 ft | 383 kts | 254° |
| 2026-05-05 07:26 | -42.27115 | 173.42113 | 32000 ft | 383 kts | 254° |
| 2026-05-05 07:26 | -42.28538 | 173.35150 | 32000 ft | 384 kts | 254° |
| 2026-05-05 07:27 | -42.30181 | 173.27077 | 31999 ft | 384 kts | 255° |
| 2026-05-05 07:27 | -42.31351 | 173.21309 | 31999 ft | 384 kts | 255° |
| 2026-05-05 07:28 | -42.32756 | 173.14362 | 31999 ft | 384 kts | 255° |
| 2026-05-05 07:28 | -42.34382 | 173.06288 | 31999 ft | 383 kts | 255° |
| 2026-05-05 07:29 | -42.35779 | 172.99327 | 32000 ft | 383 kts | 255° |
| 2026-05-05 07:29 | -42.37166 | 172.92395 | 32000 ft | 383 kts | 255° |
| 2026-05-05 07:30 | -42.38556 | 172.85422 | 32000 ft | 384 kts | 255° |
| 2026-05-05 07:30 | -42.40619 | 172.75027 | 31999 ft | 383 kts | 255° |
| 2026-05-05 07:31 | -42.41762 | 172.69244 | 31999 ft | 383 kts | 255° |
| 2026-05-05 07:31 | -42.43132 | 172.62293 | 32000 ft | 383 kts | 255° |
| 2026-05-05 07:32 | -42.44500 | 172.55327 | 32000 ft | 383 kts | 255° |
| 2026-05-05 07:32 | -42.45858 | 172.48384 | 32000 ft | 383 kts | 255° |
| 2026-05-05 07:33 | -42.47436 | 172.40286 | 32000 ft | 383 kts | 255° |
| 2026-05-05 07:33 | -42.48789 | 172.33321 | 31999 ft | 383 kts | 255° |
| 2026-05-05 07:34 | -42.50137 | 172.26350 | 32000 ft | 383 kts | 255° |
| 2026-05-05 07:34 | -42.51486 | 172.19356 | 32000 ft | 383 kts | 255° |
| 2026-05-05 07:35 | -42.52824 | 172.12390 | 32000 ft | 383 kts | 255° |
| 2026-05-05 07:35 | -42.54154 | 172.05441 | 31999 ft | 383 kts | 255° |
| 2026-05-05 07:36 | -42.55486 | 171.98459 | 31999 ft | 383 kts | 255° |
| 2026-05-05 07:36 | -42.56594 | 171.92631 | 31999 ft | 383 kts | 255° |
| 2026-05-05 07:37 | -42.58137 | 171.84485 | 31999 ft | 382 kts | 255° |
| 2026-05-05 07:37 | -42.59233 | 171.78673 | 32000 ft | 382 kts | 255° |
| 2026-05-05 07:38 | -42.60759 | 171.70563 | 31999 ft | 382 kts | 255° |
| 2026-05-05 07:38 | -42.61847 | 171.64752 | 31999 ft | 382 kts | 255° |
| 2026-05-05 07:39 | -42.63149 | 171.57779 | 31999 ft | 382 kts | 255° |
| 2026-05-05 07:39 | -42.64669 | 171.49608 | 31999 ft | 382 kts | 255° |
| 2026-05-05 07:40 | -42.65964 | 171.42618 | 31999 ft | 382 kts | 255° |
| 2026-05-05 07:40 | -42.67035 | 171.36813 | 31999 ft | 382 kts | 255° |
| 2026-05-05 07:41 | -42.68536 | 171.28657 | 32000 ft | 382 kts | 256° |
| 2026-05-05 07:41 | -42.69820 | 171.21648 | 32000 ft | 382 kts | 256° |
| 2026-05-05 07:42 | -42.71097 | 171.14650 | 32000 ft | 382 kts | 256° |
| 2026-05-05 07:42 | -42.72157 | 171.08824 | 32000 ft | 382 kts | 256° |
| 2026-05-05 07:43 | -42.73639 | 171.00645 | 32000 ft | 382 kts | 256° |
| 2026-05-05 07:43 | -42.74907 | 170.93616 | 31999 ft | 382 kts | 256° |
| 2026-05-05 07:44 | -42.75957 | 170.87778 | 31999 ft | 382 kts | 256° |
| 2026-05-05 07:44 | -42.77425 | 170.79588 | 31999 ft | 382 kts | 256° |
| 2026-05-05 07:45 | -42.78465 | 170.73758 | 31999 ft | 382 kts | 256° |
| 2026-05-05 07:45 | -42.79713 | 170.66740 | 31999 ft | 382 kts | 256° |
| 2026-05-05 07:46 | -42.81164 | 170.58548 | 31999 ft | 382 kts | 256° |
| 2026-05-05 07:46 | -42.82465 | 170.51584 | 31407 ft | 389 kts | 252° |
| 2026-05-05 07:47 | -42.83414 | 170.48065 | 30331 ft | 408 kts | 245° |
| 2026-05-05 07:47 | -42.84513 | 170.44531 | 30387 ft | 392 kts | 252° |
| 2026-05-05 07:47 | -42.84924 | 170.42198 | 30742 ft | 375 kts | 260° |
| 2026-05-05 07:47 | -42.85334 | 170.37701 | 31444 ft | 341 kts | 262° |
| 2026-05-05 07:48 | -42.85698 | 170.34650 | 31923 ft | 318 kts | 259° |
| 2026-05-05 07:48 | -42.85831 | 170.33687 | 31976 ft | 315 kts | 259° |
| 2026-05-05 07:48 | -42.86281 | 170.30563 | 32002 ft | 306 kts | 258° |